Time;durP1;ratioP1;P1;durP2;ratioP2;P2;SDS_P1;SDS_P2;PMS_P1;PMS_P2;Temp;Humidity;BMP_temperature;BMP_pressure;BME280_temperature;BME280_humidity;BME280_pressure;Samples;Min_cycle;Max_cycle;Signal;HPM_P1;HPM_P2
2022/05/21 00:00:17;;;;;;;15.15;2.65;;;;;;;15.69;63.88;101046.81;5011554;28;20022;-83
2022/05/21 00:02:43;;;;;;;20.73;3.42;;;;;;;15.64;64.31;101036.63;5011330;28;20400;-84
2022/05/21 00:05:09;;;;;;;12.85;2.45;;;;;;;15.75;64.38;101042.88;5011516;28;20026;-83
2022/05/21 00:07:35;;;;;;;15.63;2.63;;;;;;;15.77;64.99;101044.44;5011538;28;20030;-83
2022/05/21 00:10:00;;;;;;;19.92;3.22;;;;;;;15.64;65.10;101041.06;5012756;28;20109;-83
2022/05/21 00:12:25;;;;;;;10.88;2.05;;;;;;;15.83;65.19;101035.16;5015832;28;20048;-83
2022/05/21 00:14:52;;;;;;;13.63;2.67;;;;;;;15.64;65.55;101027.84;5014855;28;20030;-83
2022/05/21 00:17:18;;;;;;;14.73;2.53;;;;;;;15.78;65.12;101032.06;5014728;28;20033;-83
2022/05/21 00:19:43;;;;;;;16.90;2.10;;;;;;;15.82;64.67;101025.56;5013602;28;20034;-83
2022/05/21 00:22:09;;;;;;;14.10;2.28;;;;;;;15.67;65.02;101030.22;5014799;28;20041;-83
2022/05/21 00:24:34;;;;;;;13.27;2.20;;;;;;;15.64;65.74;101030.47;5014864;28;20029;-83
2022/05/21 00:27:00;;;;;;;15.57;2.25;;;;;;;15.71;65.73;101029.00;5025861;28;20025;-83
2022/05/21 00:29:28;;;;;;;19.20;3.85;;;;;;;15.63;65.05;101026.13;5034235;28;20105;-83
2022/05/21 00:31:54;;;;;;;15.15;2.33;;;;;;;15.71;64.40;101028.19;5049710;28;20021;-83
2022/05/21 00:34:19;;;;;;;12.35;2.55;;;;;;;15.62;64.67;101029.72;5034386;28;20434;-83
2022/05/21 00:36:45;;;;;;;12.15;2.50;;;;;;;15.47;65.67;101027.34;5034261;28;20021;-84
2022/05/21 00:39:10;;;;;;;16.00;2.63;;;;;;;15.40;65.09;101036.75;5034049;28;20029;-84
2022/05/21 00:41:36;;;;;;;19.02;2.28;;;;;;;15.32;65.78;101033.84;5025592;28;20021;-83
2022/05/21 00:44:03;;;;;;;11.18;2.63;;;;;;;15.32;65.98;101031.19;5013120;28;20022;-84
2022/05/21 00:46:40;;;;;;;19.13;2.58;;;;;;;15.24;66.05;101034.47;5014207;28;20083;-83
2022/05/21 00:49:13;;;;;;;18.52;2.97;;;;;;;15.18;66.34;101032.25;5014299;28;20079;-84
2022/05/21 00:51:52;;;;;;;18.85;3.00;;;;;;;15.25;66.55;101032.66;5013966;28;20021;-83
2022/05/21 00:54:22;;;;;;;16.15;2.80;;;;;;;15.29;66.66;101035.91;5014302;28;20026;-84
2022/05/21 00:56:56;;;;;;;16.40;2.45;;;;;;;15.06;67.31;101034.03;5025070;28;20057;-83
2022/05/21 01:02:08;;;;;;;11.88;2.10;;;;;;;15.30;66.50;101042.84;5033828;28;20531;-83
2022/05/21 01:04:34;;;;;;;21.27;2.63;;;;;;;15.14;66.93;101029.97;5034171;28;20025;-83
2022/05/21 01:07:02;;;;;;;14.52;2.63;;;;;;;15.16;67.33;101036.81;5033759;28;20029;-83
2022/05/21 01:09:27;;;;;;;21.27;3.15;;;;;;;15.13;67.35;101036.25;5033667;28;20021;-83
2022/05/21 01:11:54;;;;;;;14.13;2.50;;;;;;;15.05;67.73;101037.66;5031551;28;20036;-83
2022/05/21 01:14:20;;;;;;;13.55;2.67;;;;;;;15.08;67.64;101033.94;5033597;28;20057;-83
2022/05/21 01:16:48;;;;;;;22.33;2.92;;;;;;;15.13;67.50;101030.97;5033586;28;20059;-83
2022/05/21 01:19:13;;;;;;;12.65;2.38;;;;;;;15.07;67.62;101030.47;5033414;28;20540;-83
2022/05/21 01:21:39;;;;;;;16.23;2.75;;;;;;;15.07;67.08;101021.69;5032380;28;20104;-83
2022/05/21 01:24:05;;;;;;;9.20;2.13;;;;;;;15.01;67.60;101025.63;5032113;28;20155;-83
2022/05/21 01:26:32;;;;;;;15.50;4.05;;;;;;;15.02;67.80;101023.84;5029507;28;20022;-83
2022/05/21 01:28:58;;;;;;;18.10;2.92;;;;;;;14.93;67.87;101021.88;5031979;28;20036;-83
2022/05/21 01:31:24;;;;;;;15.38;2.53;;;;;;;14.85;68.23;101025.97;5031702;28;20041;-84
2022/05/21 01:33:49;;;;;;;20.02;3.10;;;;;;;14.59;68.97;101020.03;5032983;28;20392;-83
2022/05/21 01:36:15;;;;;;;21.63;3.40;;;;;;;14.84;68.26;101024.28;5033159;28;20108;-83
2022/05/21 01:38:42;;;;;;;25.73;3.00;;;;;;;14.88;68.55;101020.44;5033096;28;20033;-84
2022/05/21 01:41:10;;;;;;;14.20;2.78;;;;;;;14.92;68.13;101007.00;5025868;28;20030;-83
2022/05/21 01:46:20;;;;;;;22.20;4.45;;;;;;;14.60;70.28;101010.28;5013197;28;20045;-83
2022/05/21 01:48:46;;;;;;;20.10;5.68;;;;;;;14.83;69.42;101013.81;5013182;28;20026;-83
2022/05/21 01:51:12;;;;;;;18.88;4.72;;;;;;;15.04;68.15;101009.53;5013180;28;20499;-83
2022/05/21 01:53:39;;;;;;;14.32;2.00;;;;;;;15.11;67.98;101025.78;5013204;28;20041;-83
2022/05/21 01:56:05;;;;;;;21.40;2.70;;;;;;;15.10;68.12;101021.44;5015050;28;20017;-83
2022/05/21 01:58:32;;;;;;;21.80;3.10;;;;;;;15.03;68.57;101020.25;5012608;28;20032;-83
2022/05/21 02:00:58;;;;;;;24.67;3.58;;;;;;;15.02;68.81;101010.59;5011482;28;20072;-83
2022/05/21 02:03:24;;;;;;;17.15;2.08;;;;;;;15.12;68.21;101016.88;5011563;28;20497;-83
2022/05/21 02:05:50;;;;;;;13.80;2.72;;;;;;;15.10;68.14;101020.59;5012766;28;20079;-83
2022/05/21 02:08:17;;;;;;;15.13;3.53;;;;;;;15.15;67.94;101023.75;5013012;28;20030;-83
2022/05/21 02:10:44;;;;;;;11.07;2.30;;;;;;;15.06;67.72;101023.47;5012668;28;20037;-83
2022/05/21 02:13:24;;;;;;;19.42;3.20;;;;;;;15.16;68.41;101028.88;5031020;28;20163;-83
2022/05/21 02:15:50;;;;;;;15.10;3.42;;;;;;;15.05;68.58;101032.38;5032351;28;20029;-84
2022/05/21 02:18:16;;;;;;;14.55;3.22;;;;;;;15.03;69.05;101028.19;5032295;28;20026;-83
2022/05/21 02:20:41;;;;;;;18.35;2.92;;;;;;;15.08;68.88;101034.75;5032429;28;20454;-83
2022/05/21 02:23:07;;;;;;;18.08;3.08;;;;;;;15.02;68.98;101023.84;5032260;28;20041;-84
2022/05/21 02:25:33;;;;;;;12.50;2.30;;;;;;;15.01;68.82;101025.63;5032069;28;20033;-83
2022/05/21 02:27:58;;;;;;;17.58;2.40;;;;;;;14.87;69.22;101033.78;5031908;28;20373;-83
2022/05/21 02:30:24;;;;;;;15.48;2.53;;;;;;;14.86;69.20;101029.44;5031901;28;20105;-83
2022/05/21 02:32:49;;;;;;;12.23;2.95;;;;;;;14.80;69.06;101032.56;5031787;28;20053;-84
2022/05/21 02:35:15;;;;;;;13.18;2.83;;;;;;;14.82;68.51;101030.66;5032230;28;20026;-83
2022/05/21 02:40:25;;;;;;;12.15;2.30;;;;;;;14.85;68.63;101035.72;5031039;28;20451;-83
2022/05/21 02:42:51;;;;;;;10.57;2.05;;;;;;;14.79;68.58;101039.66;5031591;28;20061;-83
2022/05/21 02:45:22;;;;;;;22.08;2.70;;;;;;;14.77;69.36;101041.56;5032327;28;20543;-83
2022/05/21 02:47:48;;;;;;;12.45;2.38;;;;;;;14.67;68.79;101038.78;5032500;28;20079;-83
2022/05/21 02:50:17;;;;;;;12.98;2.53;;;;;;;14.72;69.01;101040.25;5032299;28;20033;-83
2022/05/21 02:52:43;;;;;;;12.68;2.17;;;;;;;14.57;69.78;101037.75;5031994;28;20021;-83
2022/05/21 02:55:11;;;;;;;9.43;1.98;;;;;;;14.62;69.33;101038.28;5032016;28;20502;-83
2022/05/21 02:57:36;;;;;;;22.40;3.55;;;;;;;14.64;69.08;101031.06;5030175;28;20029;-84
2022/05/21 03:00:06;;;;;;;12.95;2.30;;;;;;;14.78;69.22;101031.84;5031900;28;20030;-83
2022/05/21 03:02:32;;;;;;;23.88;4.03;;;;;;;14.79;69.14;101036.16;5031599;28;20120;-83
2022/05/21 03:04:57;;;;;;;16.58;3.03;;;;;;;14.89;69.20;101039.81;5031576;28;20165;-84
2022/05/21 03:07:22;;;;;;;13.15;2.15;;;;;;;14.96;68.38;101038.34;5031818;28;20384;-83
2022/05/21 03:12:32;;;;;;;22.92;3.67;;;;;;;14.72;69.12;101042.88;5012705;28;20041;-84
2022/05/21 03:14:57;;;;;;;12.43;3.33;;;;;;;14.62;69.40;101046.19;5011930;28;20026;-84
2022/05/21 03:17:26;;;;;;;10.57;1.98;;;;;;;14.60;69.16;101032.25;5027127;28;20026;-84
2022/05/21 03:19:51;;;;;;;22.88;3.10;;;;;;;14.55;69.17;101037.00;5011956;28;20034;-83
2022/05/21 03:22:17;;;;;;;18.20;3.15;;;;;;;14.46;69.98;101035.91;5011971;28;20030;-83
2022/05/21 03:24:43;;;;;;;20.25;3.22;;;;;;;14.55;70.34;101029.06;5012016;28;20033;-83
2022/05/21 03:27:09;;;;;;;22.75;3.70;;;;;;;14.52;69.71;101028.50;5012840;28;20476;-83
2022/05/21 03:29:34;;;;;;;20.00;2.67;;;;;;;14.41;70.18;101031.91;5011995;28;20037;-83
2022/05/21 03:32:00;;;;;;;13.82;2.28;;;;;;;14.28;70.38;101027.53;5011924;28;20033;-84
2022/05/21 03:34:25;;;;;;;16.23;2.67;;;;;;;14.22;70.44;101035.09;5011626;28;20034;-84
2022/05/21 03:36:51;;;;;;;17.30;2.38;;;;;;;14.09;70.89;101032.47;5011901;28;20530;-83
2022/05/21 03:39:16;;;;;;;26.25;2.78;;;;;;;14.02;71.03;101033.88;5012676;28;20022;-83
2022/05/21 03:41:42;;;;;;;19.00;3.78;;;;;;;14.05;70.99;101037.13;5011535;28;20030;-83
2022/05/21 03:44:08;;;;;;;13.38;2.33;;;;;;;14.02;71.17;101041.78;5011661;28;20537;-83
2022/05/21 03:46:38;;;;;;;14.65;2.40;;;;;;;13.95;70.74;101041.41;5030400;28;20026;-83
2022/05/21 03:49:03;;;;;;;8.50;2.08;;;;;;;13.96;70.88;101036.94;5015543;28;20460;-83
2022/05/21 03:51:29;;;;;;;9.98;1.90;;;;;;;13.94;71.40;101039.72;5015324;28;20030;-84
2022/05/21 03:53:54;;;;;;;8.73;1.83;;;;;;;13.98;70.61;101035.03;5037381;28;20033;-83
2022/05/21 03:56:19;;;;;;;9.55;1.75;;;;;;;13.96;70.80;101031.69;5035184;28;20033;-83
2022/05/21 03:58:45;;;;;;;18.83;2.60;;;;;;;13.92;70.96;101038.13;5035175;28;20033;-83
2022/05/21 04:01:10;;;;;;;7.35;1.70;;;;;;;13.91;70.01;101029.38;5033701;28;20534;-83
2022/05/21 04:03:35;;;;;;;6.65;1.92;;;;;;;13.86;69.64;101040.28;5049943;28;20029;-83
2022/05/21 04:06:01;;;;;;;9.95;2.25;;;;;;;13.75;70.76;101039.34;5034889;28;20029;-83
2022/05/21 04:08:26;;;;;;;16.30;2.33;;;;;;;13.76;70.14;101044.50;5031445;28;20030;-83
2022/05/21 04:10:52;;;;;;;17.27;2.92;;;;;;;13.73;70.85;101042.09;5033148;28;20025;-83
2022/05/21 04:13:18;;;;;;;8.90;2.00;;;;;;;13.71;70.96;101038.72;5034731;28;20033;-83
2022/05/21 04:15:44;;;;;;;10.48;1.83;;;;;;;13.76;70.52;101031.31;5034751;28;20045;-83
2022/05/21 04:18:09;;;;;;;15.88;2.65;;;;;;;13.77;70.28;101032.16;5034474;28;20029;-83
2022/05/21 04:20:35;;;;;;;11.63;2.33;;;;;;;13.69;70.89;101030.06;5034650;28;20032;-84
2022/05/21 04:23:00;;;;;;;15.50;2.55;;;;;;;13.72;70.04;101032.47;5034251;28;20026;-83
2022/05/21 04:25:26;;;;;;;11.95;1.98;;;;;;;14.02;69.09;101032.09;5022199;28;20534;-83
2022/05/21 04:27:52;;;;;;;11.40;2.00;;;;;;;14.05;68.84;101041.59;5013380;28;20041;-84
2022/05/21 04:30:28;;;;;;;13.13;2.28;;;;;;;13.88;69.23;101040.16;5014760;28;20387;-84
2022/05/21 04:32:55;;;;;;;9.05;1.55;;;;;;;13.95;69.44;101045.84;5014321;28;20037;-83
2022/05/21 04:35:21;;;;;;;13.75;2.75;;;;;;;13.82;70.05;101051.16;5014670;28;20026;-83
2022/05/21 04:37:47;;;;;;;12.18;1.88;;;;;;;13.81;70.07;101060.03;5014538;28;20033;-84
2022/05/21 04:40:21;;;;;;;16.88;2.63;;;;;;;13.95;70.17;101053.75;5026284;28;20094;-83
2022/05/21 04:42:47;;;;;;;19.00;2.20;;;;;;;13.98;70.39;101054.41;5032254;28;20507;-84
2022/05/21 04:45:17;;;;;;;15.63;2.63;;;;;;;14.08;70.23;101057.22;5033803;28;20040;-83
2022/05/21 04:47:42;;;;;;;17.23;3.38;;;;;;;14.14;70.18;101063.81;5034065;28;20071;-83
2022/05/21 04:50:09;;;;;;;18.73;2.63;;;;;;;14.25;69.57;101058.63;5034194;28;20029;-83
2022/05/21 04:52:36;;;;;;;14.40;2.08;;;;;;;14.52;69.33;101068.13;5033773;28;20030;-84
2022/05/21 04:55:03;;;;;;;12.13;1.92;;;;;;;14.65;69.04;101072.41;5021105;28;20034;-83
2022/05/21 04:57:29;;;;;;;18.23;2.90;;;;;;;14.48;69.35;101075.44;5014075;28;20388;-83
2022/05/21 04:59:54;;;;;;;21.02;3.25;;;;;;;14.56;69.39;101075.72;5014242;28;20026;-84
2022/05/21 05:02:20;;;;;;;12.85;2.15;;;;;;;14.54;68.91;101072.34;5013988;28;20515;-83
2022/05/21 05:04:45;;;;;;;13.90;3.17;;;;;;;14.62;68.85;101072.63;5014036;28;20025;-83
2022/05/21 05:07:11;;;;;;;21.85;3.22;;;;;;;14.71;69.06;101070.25;5014216;28;20026;-83
2022/05/21 05:09:44;;;;;;;15.52;2.92;;;;;;;14.85;68.78;101072.72;5014976;28;20022;-83
2022/05/21 05:12:09;;;;;;;16.63;3.00;;;;;;;14.81;67.96;101084.47;5013771;28;20030;-84
2022/05/21 05:14:35;;;;;;;14.75;2.35;;;;;;;14.84;68.18;101086.88;5014206;28;20036;-84
2022/05/21 05:17:01;;;;;;;10.00;2.20;;;;;;;14.82;68.17;101089.66;5013626;28;20031;-84
2022/05/21 05:19:29;;;;;;;15.50;2.67;;;;;;;14.96;67.67;101075.38;5013798;28;20077;-84
2022/05/21 05:21:55;;;;;;;16.27;3.33;;;;;;;15.05;67.72;101077.34;5013664;28;20416;-83
2022/05/21 05:24:20;;;;;;;18.38;2.50;;;;;;;15.15;67.50;101087.22;5014864;28;20068;-83
2022/05/21 05:26:45;;;;;;;17.30;3.33;;;;;;;15.27;67.52;101089.75;5013236;28;20030;-83
2022/05/21 05:29:11;;;;;;;16.67;2.47;;;;;;;15.27;66.87;101095.06;5013612;28;20491;-83
2022/05/21 05:31:36;;;;;;;15.95;3.25;;;;;;;15.19;66.90;101093.97;5013502;28;20100;-84
2022/05/21 05:34:01;;;;;;;19.40;3.70;;;;;;;15.21;66.02;101095.53;5013404;28;20022;-83
2022/05/21 05:36:28;;;;;;;12.70;2.20;;;;;;;15.23;66.25;101098.06;5013315;28;20029;-84
2022/05/21 05:38:54;;;;;;;10.95;2.15;;;;;;;15.30;66.06;101101.06;5018645;28;20033;-84
2022/05/21 05:41:19;;;;;;;14.00;3.15;;;;;;;15.25;66.14;101094.31;5032856;28;20099;-84
2022/05/21 05:43:45;;;;;;;18.08;2.45;;;;;;;15.44;65.47;101104.34;5032969;28;20029;-83
2022/05/21 05:46:10;;;;;;;17.33;3.33;;;;;;;15.44;65.80;101107.00;5033061;28;20108;-84
2022/05/21 05:48:36;;;;;;;16.60;2.85;;;;;;;15.51;65.50;101103.88;5032761;28;20053;-84
2022/05/21 05:51:03;;;;;;;15.25;2.92;;;;;;;15.52;65.64;101106.41;5032815;28;20025;-84
2022/05/21 05:53:28;;;;;;;13.07;2.20;;;;;;;15.78;64.77;101112.31;5032588;28;20029;-84
2022/05/21 05:55:54;;;;;;;13.35;2.85;;;;;;;15.84;64.45;101118.94;5032754;28;20539;-84
2022/05/21 06:01:07;;;;;;;16.80;2.58;;;;;;;16.06;63.50;101118.91;5032442;28;20087;-84
2022/05/21 06:03:32;;;;;;;13.38;2.10;;;;;;;16.18;64.05;101117.09;5032619;28;20112;-83
2022/05/21 06:05:58;;;;;;;12.23;2.30;;;;;;;16.39;62.69;101121.63;5032769;28;20532;-84
2022/05/21 06:08:23;;;;;;;17.88;3.08;;;;;;;16.37;62.22;101121.75;5029601;28;20025;-83
2022/05/21 06:10:49;;;;;;;12.98;2.25;;;;;;;16.58;62.53;101124.47;5046904;28;20029;-84
2022/05/21 06:13:15;;;;;;;16.58;2.75;;;;;;;16.69;62.16;101120.94;5032246;28;20087;-84
2022/05/21 06:15:41;;;;;;;13.80;2.85;;;;;;;16.81;61.25;101125.25;5032306;28;20107;-84
2022/05/21 06:18:12;;;;;;;17.67;2.17;;;;;;;17.17;60.80;101131.09;5032128;28;20057;-84
2022/05/21 06:20:38;;;;;;;15.43;2.30;;;;;;;17.23;59.76;101119.97;5032175;28;20029;-84
2022/05/21 06:23:04;;;;;;;15.40;2.83;;;;;;;17.25;60.03;101112.72;5030943;28;20033;-84
2022/05/21 06:25:33;;;;;;;12.18;2.05;;;;;;;17.38;60.12;101117.81;5012933;28;20105;-84
2022/05/21 06:27:59;;;;;;;12.18;1.80;;;;;;;17.95;58.56;101114.75;5012768;28;20025;-84
2022/05/21 06:30:26;;;;;;;15.23;2.42;;;;;;;18.24;57.56;101120.13;5032975;28;20060;-84
2022/05/21 06:32:53;;;;;;;14.43;2.58;;;;;;;19.06;54.94;101115.47;5032264;28;20369;-85
2022/05/21 06:35:19;;;;;;;18.55;2.53;;;;;;;20.14;52.92;101112.28;5031001;28;20097;-83
2022/05/21 06:37:44;;;;;;;10.02;2.03;;;;;;;20.34;52.60;101110.34;5011160;28;20188;-83
2022/05/21 06:40:13;;;;;;;8.85;1.75;;;;;;;21.45;50.55;101101.13;5012693;28;20484;-84
2022/05/21 06:42:39;;;;;;;15.93;2.30;;;;;;;21.90;48.74;101116.00;5012199;28;20029;-84
2022/05/21 06:45:05;;;;;;;9.65;1.73;;;;;;;21.91;48.02;101098.97;5012148;28;20121;-84
2022/05/21 06:47:31;;;;;;;14.77;2.78;;;;;;;21.85;48.18;101100.44;5014294;28;20029;-84
2022/05/21 06:49:57;;;;;;;12.95;2.55;;;;;;;21.67;48.62;101115.75;5016260;28;20468;-84
2022/05/21 06:52:26;;;;;;;18.45;2.75;;;;;;;20.76;50.19;101114.25;5012717;28;20026;-85
2022/05/21 06:54:53;;;;;;;11.05;2.70;;;;;;;20.72;50.57;101126.25;5011493;28;20056;-83
2022/05/21 06:57:19;;;;;;;13.80;2.03;;;;;;;21.10;50.32;101119.69;5027223;28;20049;-82
2022/05/21 06:59:45;;;;;;;15.13;3.67;;;;;;;22.58;47.31;101121.22;5027962;28;20104;-83
2022/05/21 07:02:10;;;;;;;15.05;2.30;;;;;;;23.70;44.56;101113.44;5030531;28;20479;-83
2022/05/21 07:07:32;;;;;;;9.95;2.58;;;;;;;24.56;43.10;101126.13;5016692;28;20558;-84
2022/05/21 07:10:10;;;;;;;11.20;1.98;;;;;;;24.67;42.88;101123.84;5029400;28;20037;-85
2022/05/21 07:12:36;;;;;;;10.45;2.03;;;;;;;24.80;42.88;101125.91;5030236;28;20477;-84
2022/05/21 07:15:05;;;;;;;13.43;2.60;;;;;;;24.48;43.23;101117.06;5030691;28;20086;-85
2022/05/21 07:17:30;;;;;;;15.10;2.22;;;;;;;23.20;45.91;101135.16;5031694;28;20276;-84
2022/05/21 07:19:56;;;;;;;12.23;3.05;;;;;;;22.75;46.28;101131.97;5032645;28;20659;-84
2022/05/21 07:22:22;;;;;;;15.05;1.85;;;;;;;22.24;48.14;101141.88;5033584;28;20036;-84
2022/05/21 07:24:48;;;;;;;14.93;3.08;;;;;;;21.87;49.03;101145.75;5034452;28;20061;-84
2022/05/21 07:27:13;;;;;;;20.25;3.95;;;;;;;21.66;49.05;101141.63;5034285;28;20032;-84
2022/05/21 07:29:39;;;;;;;9.02;2.30;;;;;;;21.81;49.27;101138.38;5034961;28;20084;-85
2022/05/21 07:32:27;;;;;;;20.55;3.00;;;;;;;21.70;49.68;101145.69;5043855;28;20033;-83
2022/05/21 07:34:58;;;;;;;16.95;2.55;;;;;;;21.26;50.66;101151.03;5035120;28;20079;-84
2022/05/21 07:37:23;;;;;;;10.95;2.15;;;;;;;21.47;49.55;101157.91;5035241;28;20018;-84
2022/05/21 07:39:48;;;;;;;10.55;1.88;;;;;;;21.49;49.73;101153.22;5034613;28;20037;-84
2022/05/21 07:42:14;;;;;;;10.85;2.40;;;;;;;20.76;50.85;101146.28;5032056;28;20116;-84
2022/05/21 07:44:39;;;;;;;13.68;2.28;;;;;;;21.45;49.55;101149.19;5034749;28;20077;-86
2022/05/21 07:47:04;;;;;;;15.07;2.60;;;;;;;21.28;50.15;101138.34;5029992;28;20108;-84
2022/05/21 07:49:30;;;;;;;15.45;2.65;;;;;;;21.11;49.49;101140.09;5026700;28;20028;-84
2022/05/21 07:51:57;;;;;;;17.63;2.65;;;;;;;21.41;48.71;101139.78;5031931;28;20427;-84
2022/05/21 07:54:23;;;;;;;15.57;3.08;;;;;;;21.79;47.96;101147.38;5028198;28;20017;-84
2022/05/21 07:56:48;;;;;;;13.15;2.45;;;;;;;21.07;50.28;101145.88;5022874;28;20032;-84
2022/05/21 07:59:13;;;;;;;14.77;2.30;;;;;;;21.07;50.85;101152.06;5031127;28;20021;-85
2022/05/21 08:01:39;;;;;;;15.27;3.05;;;;;;;20.62;51.44;101152.13;5032294;28;20582;-85
2022/05/21 08:04:04;;;;;;;18.17;2.53;;;;;;;20.93;49.90;101145.44;5033392;28;20030;-85
2022/05/21 08:06:30;;;;;;;14.57;3.38;;;;;;;21.08;50.44;101150.22;5031092;28;20029;-84
2022/05/21 08:08:57;;;;;;;12.45;2.33;;;;;;;21.34;50.22;101155.59;5027861;28;20049;-85
2022/05/21 08:11:22;;;;;;;13.68;2.30;;;;;;;21.13;49.99;101166.59;5016635;28;20288;-85
2022/05/21 08:13:48;;;;;;;11.90;2.10;;;;;;;21.39;49.80;101172.81;5020062;28;20613;-85
2022/05/21 08:16:14;;;;;;;15.40;2.60;;;;;;;21.24;49.90;101185.06;5026183;28;20561;-85
2022/05/21 08:18:40;;;;;;;11.07;2.13;;;;;;;21.45;49.63;101183.94;5035489;28;20029;-85
2022/05/21 08:21:05;;;;;;;14.95;2.15;;;;;;;20.79;50.84;101192.19;5023248;28;20056;-87
2022/05/21 08:28:59;;;;;;;12.10;2.30;;;;;;;24.31;43.72;101185.31;5023341;28;20568;-84
2022/05/21 08:31:25;;;;;;;9.38;2.10;;;;;;;24.82;42.24;101196.44;5015702;28;20026;-86
2022/05/21 08:33:50;;;;;;;11.80;2.38;;;;;;;26.64;39.10;101196.22;5027247;28;20075;-86
2022/05/21 08:36:16;;;;;;;16.38;3.25;;;;;;;26.04;39.88;101190.09;5028290;28;20388;-87
2022/05/21 08:38:41;;;;;;;9.55;2.10;;;;;;;24.85;41.05;101189.88;5029265;28;20048;-84
2022/05/21 08:41:07;;;;;;;12.60;3.22;;;;;;;24.22;43.58;101173.75;5030592;28;20108;-85
2022/05/21 08:43:50;;;;;;;9.05;2.20;;;;;;;25.21;41.00;101160.50;5032056;28;20044;-85
2022/05/21 08:46:31;;;;;;;10.35;1.92;;;;;;;25.28;40.57;101158.78;5032038;28;20034;-85
2022/05/21 08:49:01;;;;;;;15.85;3.03;;;;;;;25.12;41.43;101169.66;5031248;28;20049;-82
2022/05/21 08:51:32;;;;;;;8.60;2.00;;;;;;;24.57;41.62;101170.75;5031389;28;20431;-85
2022/05/21 08:53:59;;;;;;;15.45;3.45;;;;;;;25.12;42.29;101170.50;5029252;28;20041;-85
2022/05/21 08:56:24;;;;;;;11.07;2.63;;;;;;;26.04;39.47;101158.63;5023261;28;20080;-88
2022/05/21 08:58:55;;;;;;;10.77;2.15;;;;;;;26.26;39.19;101156.84;5021744;28;20407;-87
2022/05/21 09:01:25;;;;;;;13.68;2.03;;;;;;;25.43;40.16;101158.81;5032417;28;20032;-90
2022/05/21 09:03:53;;;;;;;13.75;2.13;;;;;;;25.15;40.11;101158.53;5028252;28;20479;-88
2022/05/21 09:06:18;;;;;;;14.45;2.15;;;;;;;24.98;41.07;101170.44;5021461;28;20381;-88
2022/05/21 09:09:00;;;;;;;13.68;2.10;;;;;;;25.56;39.91;101166.25;5017217;28;20022;-87
2022/05/21 09:14:15;;;;;;;16.70;2.47;;;;;;;25.16;39.98;101175.50;5068803;28;20380;-88
2022/05/21 09:16:55;;;;;;;12.77;2.22;;;;;;;25.23;39.71;101166.56;5067556;28;20021;-86
2022/05/21 09:19:36;;;;;;;14.85;2.58;;;;;;;24.68;41.04;101178.38;5067020;28;20029;-85
2022/05/21 09:22:07;;;;;;;10.30;2.30;;;;;;;26.01;38.48;101174.34;5053077;28;20039;-86
2022/05/21 09:24:37;;;;;;;12.55;2.10;;;;;;;25.47;38.49;101161.97;5042252;28;20025;-84
2022/05/21 09:27:04;;;;;;;12.95;2.30;;;;;;;26.17;39.57;101163.38;5046796;28;20041;-85
2022/05/21 09:29:35;;;;;;;7.13;1.83;;;;;;;27.07;38.25;101164.75;5054231;28;20029;-86
2022/05/21 09:32:22;;;;;;;8.30;2.00;;;;;;;26.58;36.72;101168.22;5057199;28;20021;-87
2022/05/21 09:35:20;;;;;;;11.70;1.90;;;;;;;26.02;38.86;101171.44;5070770;28;20020;-86
2022/05/21 09:37:45;;;;;;;14.82;2.65;;;;;;;24.96;39.93;101173.34;5036265;28;20472;-86
2022/05/21 09:40:35;;;;;;;11.02;1.80;;;;;;;24.57;40.95;101176.13;5047125;28;20030;-84
2022/05/21 09:46:26;;;;;;;9.52;1.98;;;;;;;23.60;42.12;101168.25;5038214;28;20076;-85
2022/05/21 09:48:55;;;;;;;10.23;2.30;;;;;;;23.00;44.39;101181.00;5031691;28;20018;-85
2022/05/21 09:51:26;;;;;;;15.88;3.08;;;;;;;22.63;44.73;101171.59;5039717;28;20025;-85
2022/05/21 09:53:52;;;;;;;8.50;1.75;;;;;;;22.61;44.94;101162.91;5036574;28;20033;-85
2022/05/21 09:56:29;;;;;;;12.13;2.10;;;;;;;22.12;45.83;101157.38;5043502;28;20402;-86
2022/05/21 09:59:13;;;;;;;13.38;2.40;;;;;;;22.02;47.04;101157.50;5048062;28;20020;-85
2022/05/21 10:01:41;;;;;;;10.27;1.80;;;;;;;22.26;45.48;101147.94;5058638;28;20476;-86
2022/05/21 10:04:21;;;;;;;12.52;1.80;;;;;;;22.97;44.56;101160.75;5055271;28;20042;-87
2022/05/21 10:06:54;;;;;;;11.25;1.90;;;;;;;23.04;44.27;101157.44;5060942;28;20017;-85
2022/05/21 10:12:23;;;;;;;22.13;3.15;;;;;;;22.93;44.43;101162.09;5049038;28;20044;-86
2022/05/21 10:15:01;;;;;;;11.63;2.28;;;;;;;22.35;43.86;101158.50;5050881;28;20030;-87
2022/05/21 10:17:47;;;;;;;9.32;2.00;;;;;;;22.58;43.93;101160.53;5045811;28;20025;-88
2022/05/21 10:20:20;;;;;;;14.60;2.10;;;;;;;23.02;43.70;101154.06;5049325;28;20047;-87
2022/05/21 10:23:05;;;;;;;11.93;2.13;;;;;;;24.33;40.79;101151.91;5048255;28;20021;-87
2022/05/21 10:26:01;;;;;;;10.75;2.47;;;;;;;25.92;38.61;101144.00;5016507;28;20021;-86
2022/05/21 10:29:07;;;;;;;13.27;1.90;;;;;;;26.77;36.77;101134.41;5030172;28;20264;-86
2022/05/21 10:31:39;;;;;;;10.13;2.00;;;;;;;27.98;36.02;101142.34;5015068;28;20030;-85
2022/05/21 10:34:33;;;;;;;11.27;2.17;;;;;;;29.01;33.89;101141.28;5032982;28;20060;-85
2022/05/21 10:37:12;;;;;;;12.52;2.53;;;;;;;28.79;33.27;101136.09;5034608;28;20040;-86
2022/05/21 10:40:07;;;;;;;11.73;2.03;;;;;;;28.72;33.24;101129.84;5018935;28;20033;-85
2022/05/21 10:42:52;;;;;;;11.07;1.95;;;;;;;29.20;32.53;101139.66;5053074;28;20490;-85
2022/05/21 10:45:36;;;;;;;8.70;1.63;;;;;;;29.30;32.07;101134.63;5031937;28;20021;-86
2022/05/21 10:48:20;;;;;;;9.77;1.95;;;;;;;29.34;32.29;101135.06;5034052;28;20036;-87
2022/05/21 10:50:54;;;;;;;8.40;1.92;;;;;;;29.58;30.90;101123.56;5034988;28;20147;-86
2022/05/21 10:53:25;;;;;;;10.57;1.95;;;;;;;31.05;30.87;101130.06;5032307;28;20044;-87
2022/05/21 10:56:02;;;;;;;9.63;2.35;;;;;;;30.75;30.95;101128.81;5032277;28;20025;-87
2022/05/21 10:58:38;;;;;;;8.38;1.75;;;;;;;30.04;30.97;101132.59;5033815;28;20065;-87
2022/05/21 11:01:18;;;;;;;8.45;1.67;;;;;;;31.20;29.70;101119.69;5034726;28;20025;-87
2022/05/21 11:04:21;;;;;;;18.52;2.45;;;;;;;29.78;30.25;101128.09;5033989;28;20017;-87
2022/05/21 11:07:08;;;;;;;8.05;1.77;;;;;;;29.68;31.30;101120.41;5037401;28;20037;-88
2022/05/21 11:09:45;;;;;;;11.15;1.75;;;;;;;29.31;30.85;101108.44;5029637;28;20017;-88
2022/05/21 11:12:34;;;;;;;12.77;1.88;;;;;;;27.99;32.52;101108.88;5034140;28;20032;-87
2022/05/21 11:15:13;;;;;;;10.95;1.98;;;;;;;29.17;32.54;101111.16;5033157;28;20524;-86
2022/05/21 11:17:48;;;;;;;8.88;1.90;;;;;;;29.20;31.19;101109.91;5031562;28;20029;-88
2022/05/21 11:20:39;;;;;;;10.77;1.63;;;;;;;29.66;30.53;101111.66;5031003;28;20475;-86
2022/05/21 11:23:46;;;;;;;5.50;1.30;;;;;;;30.77;29.09;101104.22;5031584;28;20049;-85
2022/05/21 11:26:23;;;;;;;12.23;3.38;;;;;;;30.31;30.22;101108.91;5024905;28;20499;-85
2022/05/21 11:29:06;;;;;;;8.27;1.70;;;;;;;30.12;28.34;101099.84;5028624;28;20029;-86
2022/05/21 11:37:21;;;;;;;8.48;1.75;;;;;;;30.03;30.07;101088.41;5032588;28;20032;-83
2022/05/21 11:39:51;;;;;;;6.28;1.65;;;;;;;29.98;28.49;101082.00;5035228;28;20373;-86
2022/05/21 11:42:22;;;;;;;7.18;2.08;;;;;;;30.72;29.23;101068.78;5031261;28;20053;-87
2022/05/21 11:45:02;;;;;;;7.95;1.63;;;;;;;30.50;29.95;101066.47;5031238;28;20468;-91
2022/05/21 11:47:41;;;;;;;6.18;1.60;;;;;;;31.12;28.53;101074.69;5029631;28;20561;-88
2022/05/21 11:50:17;;;;;;;8.02;2.15;;;;;;;31.37;28.15;101066.50;5049268;28;20068;-89
2022/05/21 11:52:54;;;;;;;12.63;2.47;;;;;;;30.20;28.94;101072.47;5034335;28;20057;-85
2022/05/21 11:55:26;;;;;;;7.20;1.77;;;;;;;29.97;29.19;101077.63;5032821;28;20017;-86
2022/05/21 11:57:54;;;;;;;8.30;1.63;;;;;;;28.22;29.55;101081.56;5038934;28;20384;-84
2022/05/21 12:00:22;;;;;;;12.00;1.67;;;;;;;27.18;31.81;101085.19;5013877;28;20033;-85
2022/05/21 12:02:54;;;;;;;9.68;1.73;;;;;;;27.62;31.87;101086.69;5027080;28;20021;-85
2022/05/21 12:05:34;;;;;;;;;;;;;;;27.46;31.42;101076.25;5015383;28;20549;-85